Time;durP1;ratioP1;P1;durP2;ratioP2;P2;SDS_P1;SDS_P2;PMS_P1;PMS_P2;Temp;Humidity;BMP_temperature;BMP_pressure;BME280_temperature;BME280_humidity;BME280_pressure;Samples;Min_cycle;Max_cycle;Signal;HPM_P1;HPM_P2
2022/05/13 00:01:51;;;;;;;;;;;;;;;;;;5031901;28;19976;-66
2022/05/13 00:04:17;;;;;;;;;;;;;;;;;;5031006;28;20015;-66
2022/05/13 00:06:43;;;;;;;;;;;;;;;;;;5014134;28;19917;-66
2022/05/13 00:09:09;;;;;;;;;;;;;;;;;;5031875;28;19924;-66
2022/05/13 00:11:35;;;;;;;;;;;;;;;;;;5031321;28;19937;-66
2022/05/13 00:14:01;;;;;;;;;;;;;;;;;;5031887;28;19936;-66
2022/05/13 00:16:27;;;;;;;;;;;;;;;;;;5031695;28;19940;-66
2022/05/13 00:18:53;;;;;;;;;;;;;;;;;;5031159;28;19964;-66
2022/05/13 00:21:19;;;;;;;;;;;;;;;;;;5031778;28;19979;-66
2022/05/13 00:23:45;;;;;;;;;;;;;;;;;;5031379;28;19921;-66
2022/05/13 00:26:11;;;;;;;;;;;;;;;;;;5039639;28;20067;-66
2022/05/13 00:28:37;;;;;;;;;;;;;;;;;;5051693;28;19974;-66
2022/05/13 00:31:04;;;;;;;;;;;;;;;;;;5051680;28;19943;-66
2022/05/13 00:33:30;;;;;;;;;;;;;;;;;;5051193;28;19944;-66
2022/05/13 00:35:57;;;;;;;;;;;;;;;;;;5054896;28;20321;-66
2022/05/13 00:38:23;;;;;;;;;;;;;;;;;;5055572;28;19970;-66
2022/05/13 00:40:48;;;;;;;;;;;;;;;;;;5054837;28;19925;-66
2022/05/13 00:43:14;;;;;;;;;;;;;;;;;;5055347;28;19948;-66
2022/05/13 00:45:40;;;;;;;;;;;;;;;;;;5055605;28;19917;-66
2022/05/13 00:48:06;;;;;;;;;;;;;;;;;;5054512;28;19939;-66
2022/05/13 00:50:32;;;;;;;;;;;;;;;;;;5037591;28;19963;-66
2022/05/13 00:52:58;;;;;;;;;;;;;;;;;;5055373;28;19939;-66
2022/05/13 00:55:24;;;;;;;;;;;;;;;;;;5054944;28;19944;-66
2022/05/13 00:57:50;;;;;;;;;;;;;;;;;;5055025;28;19982;-66
2022/05/13 01:00:16;;;;;;;;;;;;;;;;;;5055080;28;19920;-66
2022/05/13 01:02:43;;;;;;;;;;;;;;;;;;5055146;28;20043;-66
2022/05/13 01:05:09;;;;;;;;;;;;;;;;;;5054426;28;20279;-66
2022/05/13 01:07:35;;;;;;;;;;;;;;;;;;5054652;28;19924;-66
2022/05/13 01:10:01;;;;;;;;;;;;;;;;;;5054881;28;19916;-66
2022/05/13 01:12:27;;;;;;;;;;;;;;;;;;5054262;28;19917;-66
2022/05/13 01:14:53;;;;;;;;;;;;;;;;;;5054662;28;20590;-66
2022/05/13 01:20:03;;;;;;;;;;;;;;;;;;5054446;28;20279;-66
2022/05/13 01:22:30;;;;;;;;;;;;;;;;;;5054567;28;19921;-66
2022/05/13 01:24:56;;;;;;;;;;;;;;;;;;5054775;28;19943;-66
2022/05/13 01:27:22;;;;;;;;;;;;;;;;;;5035765;28;19921;-66
2022/05/13 01:29:48;;;;;;;;;;;;;;;;;;5034448;28;20067;-66
2022/05/13 01:32:14;;;;;;;;;;;;;;;;;;5034717;28;19921;-66
2022/05/13 01:34:40;;;;;;;;;;;;;;;;;;5016003;28;19924;-66
2022/05/13 01:37:06;;;;;;;;;;;;;;;;;;5034413;28;20012;-66
2022/05/13 01:39:32;;;;;;;;;;;;;;;;;;5034448;28;19920;-66
2022/05/13 01:41:58;;;;;;;;;;;;;;;;;;5033548;28;19917;-66
2022/05/13 01:44:24;;;;;;;;;;;;;;;;;;5033305;28;19999;-66
2022/05/13 01:46:50;;;;;;;;;;;;;;;;;;5033364;28;19917;-66
2022/05/13 01:49:16;;;;;;;;;;;;;;;;;;5032037;28;19917;-66
2022/05/13 01:51:42;;;;;;;;;;;;;;;;;;5034304;28;19924;-66
2022/05/13 01:54:08;;;;;;;;;;;;;;;;;;5034259;28;19921;-66
2022/05/13 01:56:34;;;;;;;;;;;;;;;;;;5032383;28;19917;-66
2022/05/13 01:59:00;;;;;;;;;;;;;;;;;;5033995;28;19939;-66
2022/05/13 02:01:26;;;;;;;;;;;;;;;;;;5033892;28;19921;-66
2022/05/13 02:03:52;;;;;;;;;;;;;;;;;;5033476;28;19924;-66
2022/05/13 02:06:18;;;;;;;;;;;;;;;;;;5034033;28;20004;-66
2022/05/13 02:08:44;;;;;;;;;;;;;;;;;;5033835;28;19979;-66
2022/05/13 02:11:10;;;;;;;;;;;;;;;;;;5033250;28;19921;-66
2022/05/13 02:13:36;;;;;;;;;;;;;;;;;;5033572;28;20008;-66
2022/05/13 02:16:03;;;;;;;;;;;;;;;;;;5033918;28;20009;-66
2022/05/13 02:18:29;;;;;;;;;;;;;;;;;;5032949;28;19987;-66
2022/05/13 02:20:55;;;;;;;;;;;;;;;;;;5033616;28;19917;-66
2022/05/13 02:23:21;;;;;;;;;;;;;;;;;;5033517;28;19967;-66
2022/05/13 02:25:47;;;;;;;;;;;;;;;;;;5038344;28;19963;-66
2022/05/13 02:28:13;;;;;;;;;;;;;;;;;;5053601;28;20263;-66
2022/05/13 02:30:39;;;;;;;;;;;;;;;;;;5035816;28;19924;-66
2022/05/13 02:33:05;;;;;;;;;;;;;;;;;;5052720;28;19948;-66
2022/05/13 02:35:31;;;;;;;;;;;;;;;;;;5035646;28;19917;-66
2022/05/13 02:37:57;;;;;;;;;;;;;;;;;;5053406;28;19917;-66
2022/05/13 02:41:11;;;;;;;;;;;;;;;;;;5052282;28;19925;-66
2022/05/13 02:43:12;;;;;;;;;;;;;;;;;;5052641;28;19928;-66
2022/05/13 02:45:38;;;;;;;;;;;;;;;;;;5053132;28;20389;-66
2022/05/13 02:48:04;;;;;;;;;;;;;;;;;;5052333;28;19916;-66
2022/05/13 02:50:30;;;;;;;;;;;;;;;;;;5053198;28;20022;-66
2022/05/13 02:52:57;;;;;;;;;;;;;;;;;;5053180;28;19920;-66
2022/05/13 02:55:23;;;;;;;;;;;;;;;;;;5052015;28;19920;-66
2022/05/13 02:57:49;;;;;;;;;;;;;;;;;;5052939;28;19920;-66
2022/05/13 03:00:15;;;;;;;;;;;;;;;;;;5052673;28;19917;-66
2022/05/13 03:02:41;;;;;;;;;;;;;;;;;;5052232;28;19925;-66
2022/05/13 03:05:07;;;;;;;;;;;;;;;;;;5052872;28;19921;-66
2022/05/13 03:07:32;;;;;;;;;;;;;;;;;;5052840;28;20426;-66
2022/05/13 03:09:58;;;;;;;;;;;;;;;;;;5052084;28;19916;-66
2022/05/13 03:12:24;;;;;;;;;;;;;;;;;;5052679;28;19916;-66
2022/05/13 03:14:50;;;;;;;;;;;;;;;;;;5034917;28;19917;-66
2022/05/13 03:17:16;;;;;;;;;;;;;;;;;;5052001;28;19939;-66
2022/05/13 03:19:42;;;;;;;;;;;;;;;;;;5052420;28;19931;-66
2022/05/13 03:22:08;;;;;;;;;;;;;;;;;;5052424;28;19952;-66
2022/05/13 03:24:34;;;;;;;;;;;;;;;;;;5051418;28;19921;-66
2022/05/13 03:27:00;;;;;;;;;;;;;;;;;;5037213;28;19920;-66
2022/05/13 03:29:26;;;;;;;;;;;;;;;;;;5032148;28;20352;-66
2022/05/13 03:31:54;;;;;;;;;;;;;;;;;;5031761;28;19921;-66
2022/05/13 03:34:21;;;;;;;;;;;;;;;;;;5032388;28;20037;-66
2022/05/13 03:36:49;;;;;;;;;;;;;;;;;;5032348;28;19924;-66
2022/05/13 03:39:15;;;;;;;;;;;;;;;;;;5031568;28;19917;-66
2022/05/13 03:41:41;;;;;;;;;;;;;;;;;;5030955;28;19925;-66
2022/05/13 03:44:07;;;;;;;;;;;;;;;;;;5032247;28;19917;-66
2022/05/13 03:46:32;;;;;;;;;;;;;;;;;;5031618;28;19920;-66
2022/05/13 03:48:58;;;;;;;;;;;;;;;;;;5032247;28;19917;-66
2022/05/13 03:51:24;;;;;;;;;;;;;;;;;;5031904;28;19960;-66
2022/05/13 03:53:50;;;;;;;;;;;;;;;;;;5031671;28;19975;-66
2022/05/13 03:56:16;;;;;;;;;;;;;;;;;;5032218;28;20128;-66
2022/05/13 03:58:42;;;;;;;;;;;;;;;;;;5032087;28;19925;-66
2022/05/13 04:01:08;;;;;;;;;;;;;;;;;;5013521;28;19944;-66
2022/05/13 04:03:34;;;;;;;;;;;;;;;;;;5032246;28;19955;-66
2022/05/13 04:08:57;;;;;;;;;;;;;;;;;;5031710;28;20271;-66
2022/05/13 04:11:23;;;;;;;;;;;;;;;;;;5038621;28;20403;-66
2022/05/13 04:16:34;;;;;;;;;;;;;;;;;;5037996;28;20271;-66
2022/05/13 04:19:00;;;;;;;;;;;;;;;;;;5038593;28;19916;-66
2022/05/13 04:21:26;;;;;;;;;;;;;;;;;;5038360;28;19957;-66
2022/05/13 04:23:52;;;;;;;;;;;;;;;;;;5037616;28;19921;-66
2022/05/13 04:26:18;;;;;;;;;;;;;;;;;;5047779;28;19923;-66
2022/05/13 04:28:47;;;;;;;;;;;;;;;;;;5058156;28;19978;-66
2022/05/13 04:31:12;;;;;;;;;;;;;;;;;;5039172;28;19978;-66
2022/05/13 04:33:38;;;;;;;;;;;;;;;;;;5058355;28;19916;-66
2022/05/13 04:36:04;;;;;;;;;;;;;;;;;;5058255;28;19974;-66
2022/05/13 04:38:30;;;;;;;;;;;;;;;;;;5057494;28;20003;-66
2022/05/13 04:40:56;;;;;;;;;;;;;;;;;;5058230;28;19923;-66
2022/05/13 04:43:22;;;;;;;;;;;;;;;;;;5058228;28;19921;-66
2022/05/13 04:45:48;;;;;;;;;;;;;;;;;;5057667;28;19948;-66
2022/05/13 04:48:17;;;;;;;;;;;;;;;;;;5058291;28;19920;-66
2022/05/13 04:50:43;;;;;;;;;;;;;;;;;;5058197;28;19955;-66
2022/05/13 04:53:09;;;;;;;;;;;;;;;;;;5057621;28;19917;-66
2022/05/13 04:55:35;;;;;;;;;;;;;;;;;;5058149;28;19917;-66
2022/05/13 04:58:01;;;;;;;;;;;;;;;;;;5058184;28;19920;-66
2022/05/13 05:00:27;;;;;;;;;;;;;;;;;;5056983;28;19924;-66
2022/05/13 05:02:53;;;;;;;;;;;;;;;;;;5057621;28;19921;-66
2022/05/13 05:05:19;;;;;;;;;;;;;;;;;;5058036;28;19940;-66
2022/05/13 05:07:45;;;;;;;;;;;;;;;;;;5057185;28;19968;-66
2022/05/13 05:10:11;;;;;;;;;;;;;;;;;;5058055;28;19960;-66
2022/05/13 05:12:37;;;;;;;;;;;;;;;;;;5040170;28;19916;-66
2022/05/13 05:15:03;;;;;;;;;;;;;;;;;;5057293;28;19941;-66
2022/05/13 05:17:29;;;;;;;;;;;;;;;;;;5058051;28;19923;-66
2022/05/13 05:19:55;;;;;;;;;;;;;;;;;;5039725;28;20013;-66
2022/05/13 05:22:22;;;;;;;;;;;;;;;;;;5053803;28;19925;-66
2022/05/13 05:24:48;;;;;;;;;;;;;;;;;;5054456;28;19928;-66
2022/05/13 05:27:14;;;;;;;;;;;;;;;;;;5037257;28;19917;-66
2022/05/13 05:29:40;;;;;;;;;;;;;;;;;;5034002;28;20021;-66
2022/05/13 05:32:06;;;;;;;;;;;;;;;;;;5034067;28;19920;-66
2022/05/13 05:34:33;;;;;;;;;;;;;;;;;;5034620;28;20073;-66
2022/05/13 05:36:59;;;;;;;;;;;;;;;;;;5015820;28;20007;-66
2022/05/13 05:39:25;;;;;;;;;;;;;;;;;;5034395;28;20300;-66
2022/05/13 05:41:51;;;;;;;;;;;;;;;;;;5034243;28;19924;-66
2022/05/13 05:44:17;;;;;;;;;;;;;;;;;;5033978;28;20047;-66
2022/05/13 05:46:44;;;;;;;;;;;;;;;;;;5034365;28;19920;-66
2022/05/13 05:49:10;;;;;;;;;;;;;;;;;;5034171;28;20004;-66
2022/05/13 05:51:37;;;;;;;;;;;;;;;;;;5033788;28;20263;-66
2022/05/13 05:59:32;;;;;;;;;;;;;;;;;;5033464;28;20202;-66
2022/05/13 06:01:58;;;;;;;;;;;;;;;;;;5049292;28;20039;-67
2022/05/13 06:04:24;;;;;;;;;;;;;;;;;;5050399;28;20032;-63
2022/05/13 06:06:50;;;;;;;;;;;;;;;;;;5032776;28;19960;-66
2022/05/13 06:09:16;;;;;;;;;;;;;;;;;;5033349;28;19917;-66
2022/05/13 06:11:42;;;;;;;;;;;;;;;;;;5033717;28;19920;-66
2022/05/13 06:14:09;;;;;;;;;;;;;;;;;;5052179;28;19916;-66
2022/05/13 06:16:35;;;;;;;;;;;;;;;;;;5053269;28;19917;-66
2022/05/13 06:19:01;;;;;;;;;;;;;;;;;;5053619;28;19921;-66
2022/05/13 06:21:27;;;;;;;;;;;;;;;;;;5052601;28;20282;-66
2022/05/13 06:23:54;;;;;;;;;;;;;;;;;;5052735;28;19928;-65
2022/05/13 06:26:21;;;;;;;;;;;;;;;;;;5052791;28;19920;-66
2022/05/13 06:28:47;;;;;;;;;;;;;;;;;;5034443;28;20661;-66
2022/05/13 06:31:13;;;;;;;;;;;;;;;;;;5053142;28;19932;-65
2022/05/13 06:33:39;;;;;;;;;;;;;;;;;;5052447;28;19947;-65
2022/05/13 06:36:05;;;;;;;;;;;;;;;;;;5052244;28;20611;-65
2022/05/13 06:38:31;;;;;;;;;;;;;;;;;;5053026;28;19920;-65
2022/05/13 06:40:57;;;;;;;;;;;;;;;;;;5052522;28;19917;-65
2022/05/13 06:43:22;;;;;;;;;;;;;;;;;;5037967;28;19925;-65
2022/05/13 06:45:48;;;;;;;;;;;;;;;;;;5048588;28;19923;-66
2022/05/13 06:48:14;;;;;;;;;;;;;;;;;;5052447;28;20041;-66
2022/05/13 06:50:43;;;;;;;;;;;;;;;;;;5052327;28;19917;-65
2022/05/13 06:53:09;;;;;;;;;;;;;;;;;;5052925;28;19916;-65
2022/05/13 06:55:35;;;;;;;;;;;;;;;;;;5052577;28;20374;-64
2022/05/13 06:58:01;;;;;;;;;;;;;;;;;;5052310;28;19916;-65
2022/05/13 07:00:26;;;;;;;;;;;;;;;;;;5051182;28;19923;-65
2022/05/13 07:02:53;;;;;;;;;;;;;;;;;;5052497;28;20031;-65
2022/05/13 07:05:20;;;;;;;;;;;;;;;;;;5052521;28;19920;-65
2022/05/13 07:07:46;;;;;;;;;;;;;;;;;;5051758;28;19921;-65
2022/05/13 07:10:12;;;;;;;;;;;;;;;;;;5052352;28;19971;-65
2022/05/13 07:12:38;;;;;;;;;;;;;;;;;;5052401;28;19916;-65
2022/05/13 07:15:04;;;;;;;;;;;;;;;;;;5051666;28;19944;-65
2022/05/13 07:17:30;;;;;;;;;;;;;;;;;;5052501;28;19924;-65
2022/05/13 07:19:56;;;;;;;;;;;;;;;;;;5052078;28;19978;-65
2022/05/13 07:22:22;;;;;;;;;;;;;;;;;;5050950;28;20450;-65
2022/05/13 07:24:48;;;;;;;;;;;;;;;;;;5051914;28;19963;-65
2022/05/13 07:27:14;;;;;;;;;;;;;;;;;;5034431;28;19920;-64
2022/05/13 07:29:40;;;;;;;;;;;;;;;;;;5051453;28;19917;-65
2022/05/13 07:32:06;;;;;;;;;;;;;;;;;;5051860;28;19917;-65
2022/05/13 07:34:33;;;;;;;;;;;;;;;;;;5051860;28;20046;-64
2022/05/13 07:36:59;;;;;;;;;;;;;;;;;;5044219;28;19916;-65
2022/05/13 07:42:09;;;;;;;;;;;;;;;;;;5048746;28;20259;-65
2022/05/13 07:44:35;;;;;;;;;;;;;;;;;;5033596;28;19921;-65
2022/05/13 07:47:01;;;;;;;;;;;;;;;;;;5036312;28;19920;-65
2022/05/13 07:49:27;;;;;;;;;;;;;;;;;;5042386;28;19923;-65
2022/05/13 07:51:53;;;;;;;;;;;;;;;;;;5051193;28;20015;-65
2022/05/13 07:54:19;;;;;;;;;;;;;;;;;;5051779;28;19959;-65
2022/05/13 07:56:45;;;;;;;;;;;;;;;;;;5051276;28;19950;-65
2022/05/13 07:59:11;;;;;;;;;;;;;;;;;;5016398;28;19924;-65
2022/05/13 08:01:37;;;;;;;;;;;;;;;;;;5043797;28;19948;-66
2022/05/13 08:04:03;;;;;;;;;;;;;;;;;;5049392;28;19924;-66
2022/05/13 08:06:28;;;;;;;;;;;;;;;;;;5049746;28;19943;-67
2022/05/13 08:08:58;;;;;;;;;;;;;;;;;;5050523;28;19943;-66
2022/05/13 08:11:24;;;;;;;;;;;;;;;;;;5050995;28;19917;-66
2022/05/13 08:13:50;;;;;;;;;;;;;;;;;;5049734;28;19923;-65
2022/05/13 08:16:16;;;;;;;;;;;;;;;;;;5015009;28;19967;-66
2022/05/13 08:18:42;;;;;;;;;;;;;;;;;;5050444;28;20362;-66
2022/05/13 08:21:08;;;;;;;;;;;;;;;;;;5050398;28;19924;-65
2022/05/13 08:23:34;;;;;;;;;;;;;;;;;;5050862;28;19920;-67
2022/05/13 08:26:00;;;;;;;;;;;;;;;;;;5050988;28;19916;-67
2022/05/13 08:28:26;;;;;;;;;;;;;;;;;;5031032;28;19917;-66
2022/05/13 08:30:52;;;;;;;;;;;;;;;;;;5050805;28;19921;-66
2022/05/13 08:33:18;;;;;;;;;;;;;;;;;;5044762;28;19917;-65
2022/05/13 08:35:47;;;;;;;;;;;;;;;;;;5030361;28;19917;-66
2022/05/13 08:38:13;;;;;;;;;;;;;;;;;;5028699;28;19921;-66
2022/05/13 08:40:39;;;;;;;;;;;;;;;;;;5049254;28;20038;-67
2022/05/13 08:43:05;;;;;;;;;;;;;;;;;;5049726;28;20363;-66
2022/05/13 08:45:31;;;;;;;;;;;;;;;;;;5050555;28;19939;-66
2022/05/13 08:47:56;;;;;;;;;;;;;;;;;;5050869;28;19917;-66
2022/05/13 08:50:22;;;;;;;;;;;;;;;;;;5047567;28;19925;-65
2022/05/13 08:53:07;;;;;;;;;;;;;;;;;;5050264;28;19982;-66
2022/05/13 08:55:33;;;;;;;;;;;;;;;;;;5049460;28;20851;-66
2022/05/13 08:57:59;;;;;;;;;;;;;;;;;;5053793;28;19921;-65
2022/05/13 09:00:25;;;;;;;;;;;;;;;;;;5029768;28;20261;-65
2022/05/13 09:02:51;;;;;;;;;;;;;;;;;;5034260;28;19933;-65
2022/05/13 09:05:17;;;;;;;;;;;;;;;;;;5041051;28;19939;-65
2022/05/13 09:07:44;;;;;;;;;;;;;;;;;;5022475;28;19920;-65
2022/05/13 09:10:10;;;;;;;;;;;;;;;;;;5048947;28;20287;-66
2022/05/13 09:12:36;;;;;;;;;;;;;;;;;;5053988;28;19920;-66
2022/05/13 09:15:02;;;;;;;;;;;;;;;;;;5054199;28;19982;-66
2022/05/13 09:17:28;;;;;;;;;;;;;;;;;;5053560;28;20007;-67
2022/05/13 09:19:54;;;;;;;;;;;;;;;;;;5053518;28;19999;-67
2022/05/13 09:22:20;;;;;;;;;;;;;;;;;;5053163;28;19924;-67
2022/05/13 09:24:46;;;;;;;;;;;;;;;;;;5053914;28;19924;-67
2022/05/13 09:27:12;;;;;;;;;;;;;;;;;;5053709;28;19929;-66
2022/05/13 09:29:39;;;;;;;;;;;;;;;;;;5019473;28;20294;-66
2022/05/13 09:32:06;;;;;;;;;;;;;;;;;;5053431;28;20280;-65
2022/05/13 09:34:34;;;;;;;;;;;;;;;;;;5049170;28;20047;-65
2022/05/13 09:37:00;;;;;;;;;;;;;;;;;;5002303;28;19964;-65
2022/05/13 09:39:26;;;;;;;;;;;;;;;;;;5037893;28;19997;-65
2022/05/13 09:41:55;;;;;;;;;;;;;;;;;;5044047;28;19990;-66
2022/05/13 09:44:22;;;;;;;;;;;;;;;;;;5053624;28;19925;-65
2022/05/13 09:46:49;;;;;;;;;;;;;;;;;;5053653;28;19916;-65
2022/05/13 09:49:16;;;;;;;;;;;;;;;;;;5052548;28;19927;-66
2022/05/13 09:51:42;;;;;;;;;;;;;;;;;;5053863;28;19921;-66
2022/05/13 09:54:08;;;;;;;;;;;;;;;;;;5053727;28;19916;-66
2022/05/13 09:56:34;;;;;;;;;;;;;;;;;;5052718;28;19917;-66
2022/05/13 09:59:00;;;;;;;;;;;;;;;;;;5053653;28;19917;-66
2022/05/13 10:01:28;;;;;;;;;;;;;;;;;;5035250;28;19927;-66
2022/05/13 10:03:54;;;;;;;;;;;;;;;;;;5052633;28;19924;-66
2022/05/13 10:06:21;;;;;;;;;;;;;;;;;;5052499;28;19974;-66
2022/05/13 10:08:47;;;;;;;;;;;;;;;;;;5051322;28;19923;-66
2022/05/13 10:14:18;;;;;;;;;;;;;;;;;;4980554;28;19922;-66
2022/05/13 10:16:44;;;;;;;;;;;;;;;;;;4960133;28;19925;-66
2022/05/13 10:19:10;;;;;;;;;;;;;;;;;;5013056;28;19917;-66
2022/05/13 10:21:36;;;;;;;;;;;;;;;;;;5045484;28;20293;-67
2022/05/13 10:24:02;;;;;;;;;;;;;;;;;;5035588;28;20011;-66
2022/05/13 10:26:29;;;;;;;;;;;;;;;;;;5049727;28;19946;-65
2022/05/13 10:28:55;;;;;;;;;;;;;;;;;;5052525;28;20335;-65
2022/05/13 10:31:21;;;;;;;;;;;;;;;;;;5058348;28;19924;-68
2022/05/13 10:33:47;;;;;;;;;;;;;;;;;;5039923;28;19908;-69
2022/05/13 10:36:13;;;;;;;;;;;;;;;;;;5053455;28;19916;-69
2022/05/13 10:38:39;;;;;;;;;;;;;;;;;;5050306;28;19976;-68
2022/05/13 10:41:05;;;;;;;;;;;;;;;;;;5054236;28;19925;-68
2022/05/13 10:43:31;;;;;;;;;;;;;;;;;;5037011;28;19968;-66
2022/05/13 10:45:57;;;;;;;;;;;;;;;;;;5050010;28;19916;-69
2022/05/13 10:48:23;;;;;;;;;;;;;;;;;;5053079;28;19947;-68
2022/05/13 10:50:49;;;;;;;;;;;;;;;;;;5026112;28;19917;-67
2022/05/13 10:53:15;;;;;;;;;;;;;;;;;;5020876;28;19948;-66
2022/05/13 10:55:42;;;;;;;;;;;;;;;;;;5015635;28;19925;-66
2022/05/13 10:58:08;;;;;;;;;;;;;;;;;;5025832;28;19923;-68
2022/05/13 11:00:34;;;;;;;;;;;;;;;;;;5052074;28;19921;-67
2022/05/13 11:02:59;;;;;;;;;;;;;;;;;;5050981;28;19921;-67
2022/05/13 11:05:25;;;;;;;;;;;;;;;;;;5043809;28;19939;-68
2022/05/13 11:07:52;;;;;;;;;;;;;;;;;;5040838;28;19920;-66
2022/05/13 11:10:18;;;;;;;;;;;;;;;;;;5051431;28;19923;-67
2022/05/13 11:12:44;;;;;;;;;;;;;;;;;;5054632;28;19920;-66
2022/05/13 11:15:11;;;;;;;;;;;;;;;;;;5056108;28;20362;-67
2022/05/13 11:17:37;;;;;;;;;;;;;;;;;;5029320;28;19923;-68
2022/05/13 11:20:03;;;;;;;;;;;;;;;;;;5032412;28;19920;-69
2022/05/13 11:22:29;;;;;;;;;;;;;;;;;;5014112;28;19943;-69
2022/05/13 11:27:39;;;;;;;;;;;;;;;;;;5012246;28;20412;-68
2022/05/13 11:30:05;;;;;;;;;;;;;;;;;;4987133;28;19921;-68
2022/05/13 11:32:31;;;;;;;;;;;;;;;;;;5029598;28;20055;-68
2022/05/13 11:34:58;;;;;;;;;;;;;;;;;;5048415;28;19995;-66
2022/05/13 11:37:24;;;;;;;;;;;;;;;;;;5052067;28;19917;-67
2022/05/13 11:39:50;;;;;;;;;;;;;;;;;;5034684;28;19916;-66
2022/05/13 11:42:16;;;;;;;;;;;;;;;;;;5046799;28;19921;-68
2022/05/13 11:44:42;;;;;;;;;;;;;;;;;;5053826;28;20053;-68
2022/05/13 11:47:08;;;;;;;;;;;;;;;;;;5050853;28;19916;-68
2022/05/13 11:49:34;;;;;;;;;;;;;;;;;;5051725;28;19990;-68
2022/05/13 11:51:59;;;;;;;;;;;;;;;;;;5034484;28;19952;-68
2022/05/13 11:54:25;;;;;;;;;;;;;;;;;;5031632;28;19920;-66
2022/05/13 11:56:51;;;;;;;;;;;;;;;;;;5051656;28;19917;-67
2022/05/13 11:59:17;;;;;;;;;;;;;;;;;;5050806;28;19921;-66
2022/05/13 12:01:43;;;;;;;;;;;;;;;;;;5024851;28;19925;-66
2022/05/13 12:04:09;;;;;;;;;;;;;;;;;;5012976;28;19921;-68
2022/05/13 12:06:35;;;;;;;;;;;;;;;;;;5046707;28;19990;-67
2022/05/13 12:09:01;;;;;;;;;;;;;;;;;;5051804;28;19924;-68
2022/05/13 12:11:27;;;;;;;;;;;;;;;;;;5013180;28;19987;-67
2022/05/13 12:13:53;;;;;;;;;;;;;;;;;;5037985;28;19921;-67
2022/05/13 12:16:19;;;;;;;;;;;;;;;;;;5053334;28;19994;-68
2022/05/13 12:18:46;;;;;;;;;;;;;;;;;;5050809;28;19921;-67
2022/05/13 12:21:12;;;;;;;;;;;;;;;;;;5052409;28;20015;-67
2022/05/13 12:23:38;;;;;;;;;;;;;;;;;;5052412;28;20383;-67
2022/05/13 12:26:04;;;;;;;;;;;;;;;;;;5044202;28;19966;-67
2022/05/13 12:28:31;;;;;;;;;;;;;;;;;;5031524;28;19927;-66
2022/05/13 12:30:57;;;;;;;;;;;;;;;;;;5047033;28;20275;-67
2022/05/13 12:33:24;;;;;;;;;;;;;;;;;;5054805;28;20015;-67
2022/05/13 12:38:36;;;;;;;;;;;;;;;;;;5054274;28;20725;-68
2022/05/13 12:41:09;;;;;;;;;;;;;;;;;;5045629;28;19921;-68
2022/05/13 12:43:35;;;;;;;;;;;;;;;;;;5040813;28;19979;-68
2022/05/13 12:46:02;;;;;;;;;;;;;;;;;;5039894;28;19956;-66
2022/05/13 12:48:28;;;;;;;;;;;;;;;;;;5055528;28;20014;-68
2022/05/13 12:50:57;;;;;;;;;;;;;;;;;;5054322;28;19983;-68
2022/05/13 12:53:23;;;;;;;;;;;;;;;;;;5036925;28;19920;-67
2022/05/13 12:55:49;;;;;;;;;;;;;;;;;;5029631;28;19947;-68
2022/05/13 12:58:14;;;;;;;;;;;;;;;;;;5008114;28;19917;-67
2022/05/13 13:00:42;;;;;;;;;;;;;;;;;;5053810;28;19916;-68
2022/05/13 13:03:07;;;;;;;;;;;;;;;;;;5053947;28;20004;-69
2022/05/13 13:05:33;;;;;;;;;;;;;;;;;;5053954;28;20015;-69
2022/05/13 13:07:59;;;;;;;;;;;;;;;;;;5053789;28;19923;-68
2022/05/13 13:10:27;;;;;;;;;;;;;;;;;;5049021;28;19916;-69
2022/05/13 13:12:53;;;;;;;;;;;;;;;;;;5034686;28;19925;-68
2022/05/13 13:15:19;;;;;;;;;;;;;;;;;;5051501;28;20314;-67
2022/05/13 13:17:45;;;;;;;;;;;;;;;;;;5017705;28;19943;-69
2022/05/13 13:20:11;;;;;;;;;;;;;;;;;;5034191;28;20032;-68
2022/05/13 13:22:37;;;;;;;;;;;;;;;;;;5043996;28;20008;-68
2022/05/13 13:25:03;;;;;;;;;;;;;;;;;;5045307;28;20011;-69
2022/05/13 13:27:29;;;;;;;;;;;;;;;;;;5035420;28;20267;-67
2022/05/13 13:29:55;;;;;;;;;;;;;;;;;;5050979;28;19940;-68
2022/05/13 13:32:21;;;;;;;;;;;;;;;;;;5033601;28;19956;-69
2022/05/13 13:34:47;;;;;;;;;;;;;;;;;;5026237;28;19942;-67
2022/05/13 13:37:13;;;;;;;;;;;;;;;;;;5053830;28;19917;-67
2022/05/13 13:39:39;;;;;;;;;;;;;;;;;;5053145;28;20290;-66
2022/05/13 13:42:05;;;;;;;;;;;;;;;;;;5054591;28;19932;-66
2022/05/13 13:44:31;;;;;;;;;;;;;;;;;;5029894;28;19921;-67
2022/05/13 13:46:57;;;;;;;;;;;;;;;;;;5049569;28;20370;-69
2022/05/13 13:49:23;;;;;;;;;;;;;;;;;;5044296;28;19920;-70
2022/05/13 13:51:49;;;;;;;;;;;;;;;;;;5055548;28;19955;-70
2022/05/13 13:54:15;;;;;;;;;;;;;;;;;;5054853;28;19917;-69
2022/05/13 13:56:42;;;;;;;;;;;;;;;;;;5054694;28;19916;-68
2022/05/13 13:59:08;;;;;;;;;;;;;;;;;;5056429;28;20003;-69
2022/05/13 14:01:34;;;;;;;;;;;;;;;;;;5048046;28;20032;-69
2022/05/13 14:04:00;;;;;;;;;;;;;;;;;;5048794;28;19921;-68
2022/05/13 14:06:25;;;;;;;;;;;;;;;;;;5046719;28;19923;-68
2022/05/13 14:08:51;;;;;;;;;;;;;;;;;;5054646;28;19942;-68
2022/05/13 14:11:17;;;;;;;;;;;;;;;;;;5056925;28;20007;-69
2022/05/13 14:13:43;;;;;;;;;;;;;;;;;;5038510;28;19921;-68
2022/05/13 14:16:09;;;;;;;;;;;;;;;;;;5055087;28;19923;-68
2022/05/13 14:18:35;;;;;;;;;;;;;;;;;;5011817;28;19917;-67
2022/05/13 14:21:01;;;;;;;;;;;;;;;;;;5040451;28;19920;-67
2022/05/13 14:23:27;;;;;;;;;;;;;;;;;;5051851;28;19942;-67
2022/05/13 14:25:56;;;;;;;;;;;;;;;;;;5022943;28;19925;-68
2022/05/13 14:28:22;;;;;;;;;;;;;;;;;;5000887;28;19921;-69
2022/05/13 14:30:48;;;;;;;;;;;;;;;;;;5017450;28;19921;-69
2022/05/13 14:33:16;;;;;;;;;;;;;;;;;;5024106;28;19917;-69
2022/05/13 14:35:42;;;;;;;;;;;;;;;;;;5055033;28;19956;-68
2022/05/13 14:38:08;;;;;;;;;;;;;;;;;;5054748;28;20054;-68
2022/05/13 14:40:33;;;;;;;;;;;;;;;;;;5038362;28;19920;-68
2022/05/13 14:42:59;;;;;;;;;;;;;;;;;;5056498;28;19952;-68
2022/05/13 14:45:25;;;;;;;;;;;;;;;;;;5054564;28;19924;-69
2022/05/13 14:47:51;;;;;;;;;;;;;;;;;;5056484;28;19990;-69
2022/05/13 14:50:19;;;;;;;;;;;;;;;;;;5055633;28;19917;-67
2022/05/13 14:52:45;;;;;;;;;;;;;;;;;;5060018;28;19951;-69
2022/05/13 14:55:11;;;;;;;;;;;;;;;;;;5052676;28;19955;-69
2022/05/13 14:57:39;;;;;;;;;;;;;;;;;;5019952;28;19966;-68
2022/05/13 15:00:05;;;;;;;;;;;;;;;;;;5041865;28;19996;-68
2022/05/13 15:02:32;;;;;;;;;;;;;;;;;;5056616;28;19932;-69
2022/05/13 15:04:58;;;;;;;;;;;;;;;;;;5058567;28;19923;-69
2022/05/13 15:07:24;;;;;;;;;;;;;;;;;;5056645;28;19970;-69
2022/05/13 15:09:50;;;;;;;;;;;;;;;;;;5040304;28;19967;-69
2022/05/13 15:12:17;;;;;;;;;;;;;;;;;;5038482;28;20377;-69
2022/05/13 15:14:43;;;;;;;;;;;;;;;;;;5056740;28;19956;-70
2022/05/13 15:17:08;;;;;;;;;;;;;;;;;;5059844;28;19922;-70
2022/05/13 15:19:36;;;;;;;;;;;;;;;;;;5060579;28;19916;-70
2022/05/13 15:22:03;;;;;;;;;;;;;;;;;;5058775;28;19924;-70
2022/05/13 15:24:30;;;;;;;;;;;;;;;;;;5041373;28;19921;-70
2022/05/13 15:26:56;;;;;;;;;;;;;;;;;;5026296;28;19928;-71
2022/05/13 15:29:23;;;;;;;;;;;;;;;;;;5037766;28;20291;-70
2022/05/13 15:31:49;;;;;;;;;;;;;;;;;;5037817;28;19923;-70
2022/05/13 15:34:15;;;;;;;;;;;;;;;;;;5041408;28;19948;-70
2022/05/13 15:36:41;;;;;;;;;;;;;;;;;;5038159;28;19924;-70
2022/05/13 15:39:07;;;;;;;;;;;;;;;;;;5022067;28;19944;-70
2022/05/13 15:41:33;;;;;;;;;;;;;;;;;;5035322;28;19917;-70
2022/05/13 15:43:59;;;;;;;;;;;;;;;;;;5016874;28;19940;-70
2022/05/13 15:46:25;;;;;;;;;;;;;;;;;;5018581;28;19917;-70
2022/05/13 15:48:50;;;;;;;;;;;;;;;;;;5037026;28;20056;-70
2022/05/13 15:54:01;;;;;;;;;;;;;;;;;;5035916;28;19921;-70
2022/05/13 15:56:28;;;;;;;;;;;;;;;;;;5033953;28;19928;-70
2022/05/13 15:58:54;;;;;;;;;;;;;;;;;;5035367;28;20011;-70
2022/05/13 16:01:21;;;;;;;;;;;;;;;;;;5036894;28;19995;-70
2022/05/13 16:03:48;;;;;;;;;;;;;;;;;;5036624;28;19924;-70
2022/05/13 16:06:15;;;;;;;;;;;;;;;;;;5036207;28;19921;-70
2022/05/13 16:08:41;;;;;;;;;;;;;;;;;;5037009;28;19917;-70
2022/05/13 16:11:09;;;;;;;;;;;;;;;;;;5022082;28;19987;-70
2022/05/13 16:13:35;;;;;;;;;;;;;;;;;;5035190;28;19917;-70
2022/05/13 16:16:01;;;;;;;;;;;;;;;;;;5036143;28;19963;-70
2022/05/13 16:18:27;;;;;;;;;;;;;;;;;;5035450;28;19959;-70
2022/05/13 16:20:53;;;;;;;;;;;;;;;;;;5035442;28;19921;-70
2022/05/13 16:23:19;;;;;;;;;;;;;;;;;;5035881;28;19948;-70
2022/05/13 16:25:45;;;;;;;;;;;;;;;;;;5036175;28;19947;-70
2022/05/13 16:28:11;;;;;;;;;;;;;;;;;;5036952;28;19921;-70
2022/05/13 16:30:37;;;;;;;;;;;;;;;;;;5037707;28;19924;-70
2022/05/13 16:33:03;;;;;;;;;;;;;;;;;;5020440;28;19988;-70
2022/05/13 16:35:28;;;;;;;;;;;;;;;;;;5019883;28;19936;-70
2022/05/13 16:37:56;;;;;;;;;;;;;;;;;;5039179;28;19917;-70
2022/05/13 16:40:22;;;;;;;;;;;;;;;;;;5037000;28;20671;-70
2022/05/13 16:42:47;;;;;;;;;;;;;;;;;;5037198;28;19921;-70
2022/05/13 16:45:15;;;;;;;;;;;;;;;;;;5038196;28;19924;-70
2022/05/13 16:47:41;;;;;;;;;;;;;;;;;;5036076;28;19964;-70
2022/05/13 16:50:07;;;;;;;;;;;;;;;;;;5035362;28;19940;-70
2022/05/13 16:52:33;;;;;;;;;;;;;;;;;;5020068;28;19917;-70
2022/05/13 16:54:58;;;;;;;;;;;;;;;;;;5038309;28;20000;-70
2022/05/13 16:57:24;;;;;;;;;;;;;;;;;;5038815;28;20387;-70
2022/05/13 16:59:50;;;;;;;;;;;;;;;;;;5037730;28;19921;-70
2022/05/13 17:02:16;;;;;;;;;;;;;;;;;;5038020;28;19982;-70
2022/05/13 17:04:42;;;;;;;;;;;;;;;;;;5036473;28;19928;-70
2022/05/13 17:07:09;;;;;;;;;;;;;;;;;;5019291;28;19955;-70